sensor_id;sensor_type;location;lat;lon;timestamp;P1;durP1;ratioP1;P2;durP2;ratioP2
44110;SDS011;29774;52.664;5.074;2023-02-13T00:01:09;29.70;;;19.23;;
44110;SDS011;29774;52.664;5.074;2023-02-13T00:03:34;29.70;;;18.83;;
44110;SDS011;29774;52.664;5.074;2023-02-13T00:06:00;34.55;;;19.75;;
44110;SDS011;29774;52.664;5.074;2023-02-13T00:08:26;36.97;;;21.45;;
44110;SDS011;29774;52.664;5.074;2023-02-13T00:10:51;28.85;;;18.50;;
44110;SDS011;29774;52.664;5.074;2023-02-13T00:13:17;27.55;;;18.38;;
44110;SDS011;29774;52.664;5.074;2023-02-13T00:15:42;30.00;;;17.83;;
44110;SDS011;29774;52.664;5.074;2023-02-13T00:18:08;30.08;;;19.10;;
44110;SDS011;29774;52.664;5.074;2023-02-13T00:20:34;34.13;;;20.55;;
44110;SDS011;29774;52.664;5.074;2023-02-13T00:22:59;34.72;;;21.52;;
44110;SDS011;29774;52.664;5.074;2023-02-13T00:25:25;31.38;;;19.90;;
44110;SDS011;29774;52.664;5.074;2023-02-13T00:27:51;29.42;;;19.27;;
44110;SDS011;29774;52.664;5.074;2023-02-13T00:30:18;30.27;;;20.33;;
44110;SDS011;29774;52.664;5.074;2023-02-13T00:32:45;30.08;;;19.95;;
44110;SDS011;29774;52.664;5.074;2023-02-13T00:35:10;32.00;;;19.92;;
44110;SDS011;29774;52.664;5.074;2023-02-13T00:37:36;32.28;;;19.42;;
44110;SDS011;29774;52.664;5.074;2023-02-13T00:40:02;33.25;;;20.05;;
44110;SDS011;29774;52.664;5.074;2023-02-13T00:42:28;28.40;;;19.25;;
44110;SDS011;29774;52.664;5.074;2023-02-13T00:44:53;31.90;;;19.83;;
44110;SDS011;29774;52.664;5.074;2023-02-13T00:47:19;32.00;;;20.23;;
44110;SDS011;29774;52.664;5.074;2023-02-13T00:49:45;28.70;;;19.00;;
44110;SDS011;29774;52.664;5.074;2023-02-13T00:52:10;28.58;;;19.08;;
44110;SDS011;29774;52.664;5.074;2023-02-13T00:54:36;27.63;;;18.55;;
44110;SDS011;29774;52.664;5.074;2023-02-13T00:57:02;29.88;;;20.00;;
44110;SDS011;29774;52.664;5.074;2023-02-13T00:59:28;29.75;;;19.52;;
44110;SDS011;29774;52.664;5.074;2023-02-13T01:01:54;28.40;;;19.30;;
44110;SDS011;29774;52.664;5.074;2023-02-13T01:04:19;30.48;;;18.73;;
44110;SDS011;29774;52.664;5.074;2023-02-13T01:06:45;31.63;;;19.90;;
44110;SDS011;29774;52.664;5.074;2023-02-13T01:09:11;30.40;;;19.83;;
44110;SDS011;29774;52.664;5.074;2023-02-13T01:11:36;30.80;;;18.35;;
44110;SDS011;29774;52.664;5.074;2023-02-13T01:14:02;28.65;;;18.27;;
44110;SDS011;29774;52.664;5.074;2023-02-13T01:16:28;29.42;;;18.20;;
44110;SDS011;29774;52.664;5.074;2023-02-13T01:18:53;29.20;;;18.42;;
44110;SDS011;29774;52.664;5.074;2023-02-13T01:21:20;29.35;;;19.35;;
44110;SDS011;29774;52.664;5.074;2023-02-13T01:23:47;29.45;;;18.98;;
44110;SDS011;29774;52.664;5.074;2023-02-13T01:26:18;30.17;;;19.77;;
44110;SDS011;29774;52.664;5.074;2023-02-13T01:28:45;32.45;;;17.92;;
44110;SDS011;29774;52.664;5.074;2023-02-13T01:31:11;27.30;;;18.58;;
44110;SDS011;29774;52.664;5.074;2023-02-13T01:33:36;28.17;;;19.10;;
44110;SDS011;29774;52.664;5.074;2023-02-13T01:36:09;27.83;;;18.48;;
44110;SDS011;29774;52.664;5.074;2023-02-13T01:38:36;30.38;;;19.25;;
44110;SDS011;29774;52.664;5.074;2023-02-13T01:41:01;29.80;;;19.38;;
44110;SDS011;29774;52.664;5.074;2023-02-13T01:46:11;26.25;;;18.15;;
44110;SDS011;29774;52.664;5.074;2023-02-13T01:48:40;26.55;;;18.33;;
44110;SDS011;29774;52.664;5.074;2023-02-13T01:51:07;29.02;;;19.42;;
44110;SDS011;29774;52.664;5.074;2023-02-13T01:56:48;30.17;;;18.67;;
44110;SDS011;29774;52.664;5.074;2023-02-13T01:59:10;27.95;;;19.70;;
44110;SDS011;29774;52.664;5.074;2023-02-13T02:01:38;27.67;;;18.27;;
44110;SDS011;29774;52.664;5.074;2023-02-13T02:06:39;30.23;;;19.27;;
44110;SDS011;29774;52.664;5.074;2023-02-13T02:09:15;28.92;;;19.40;;
44110;SDS011;29774;52.664;5.074;2023-02-13T02:11:49;28.40;;;18.90;;
44110;SDS011;29774;52.664;5.074;2023-02-13T02:14:20;29.30;;;19.67;;
44110;SDS011;29774;52.664;5.074;2023-02-13T02:16:45;29.10;;;19.55;;
44110;SDS011;29774;52.664;5.074;2023-02-13T02:19:18;29.60;;;19.40;;
44110;SDS011;29774;52.664;5.074;2023-02-13T02:21:50;32.60;;;20.52;;
44110;SDS011;29774;52.664;5.074;2023-02-13T02:25:21;30.70;;;20.02;;
44110;SDS011;29774;52.664;5.074;2023-02-13T02:27:39;31.60;;;19.02;;
44110;SDS011;29774;52.664;5.074;2023-02-13T02:30:22;30.73;;;20.10;;
44110;SDS011;29774;52.664;5.074;2023-02-13T02:33:16;31.73;;;19.85;;
44110;SDS011;29774;52.664;5.074;2023-02-13T02:35:57;30.13;;;20.20;;
44110;SDS011;29774;52.664;5.074;2023-02-13T02:41:17;31.73;;;19.50;;
44110;SDS011;29774;52.664;5.074;2023-02-13T02:44:16;32.35;;;19.85;;
44110;SDS011;29774;52.664;5.074;2023-02-13T02:47:23;32.40;;;20.60;;
44110;SDS011;29774;52.664;5.074;2023-02-13T02:50:34;32.25;;;19.23;;
44110;SDS011;29774;52.664;5.074;2023-02-13T02:56:10;33.97;;;19.55;;
44110;SDS011;29774;52.664;5.074;2023-02-13T03:01:29;29.83;;;19.52;;
44110;SDS011;29774;52.664;5.074;2023-02-13T03:04:22;30.55;;;19.08;;
44110;SDS011;29774;52.664;5.074;2023-02-13T03:07:14;31.05;;;19.42;;
44110;SDS011;29774;52.664;5.074;2023-02-13T03:09:43;30.27;;;19.08;;
44110;SDS011;29774;52.664;5.074;2023-02-13T03:12:50;33.45;;;20.17;;
44110;SDS011;29774;52.664;5.074;2023-02-13T03:15:44;32.22;;;20.42;;
44110;SDS011;29774;52.664;5.074;2023-02-13T03:18:30;34.30;;;20.92;;
44110;SDS011;29774;52.664;5.074;2023-02-13T03:24:57;30.85;;;18.35;;
44110;SDS011;29774;52.664;5.074;2023-02-13T03:31:07;32.17;;;18.90;;
44110;SDS011;29774;52.664;5.074;2023-02-13T03:33:57;34.05;;;21.33;;
44110;SDS011;29774;52.664;5.074;2023-02-13T03:42:03;32.60;;;21.40;;
44110;SDS011;29774;52.664;5.074;2023-02-13T03:44:47;33.63;;;21.85;;
44110;SDS011;29774;52.664;5.074;2023-02-13T03:47:39;33.80;;;22.02;;
44110;SDS011;29774;52.664;5.074;2023-02-13T03:50:07;35.67;;;23.02;;
44110;SDS011;29774;52.664;5.074;2023-02-13T03:52:39;33.58;;;22.50;;
44110;SDS011;29774;52.664;5.074;2023-02-13T03:55:43;32.40;;;21.75;;
44110;SDS011;29774;52.664;5.074;2023-02-13T03:58:39;35.40;;;24.33;;
44110;SDS011;29774;52.664;5.074;2023-02-13T04:01:25;37.67;;;23.52;;
44110;SDS011;29774;52.664;5.074;2023-02-13T04:03:58;34.40;;;21.67;;
44110;SDS011;29774;52.664;5.074;2023-02-13T04:06:26;36.15;;;24.05;;
44110;SDS011;29774;52.664;5.074;2023-02-13T04:08:56;35.45;;;22.45;;
44110;SDS011;29774;52.664;5.074;2023-02-13T04:13:58;38.08;;;23.23;;
44110;SDS011;29774;52.664;5.074;2023-02-13T04:16:30;35.47;;;22.00;;
44110;SDS011;29774;52.664;5.074;2023-02-13T04:18:59;36.47;;;23.13;;
44110;SDS011;29774;52.664;5.074;2023-02-13T04:21:25;32.92;;;21.52;;
44110;SDS011;29774;52.664;5.074;2023-02-13T04:23:51;35.05;;;21.50;;
44110;SDS011;29774;52.664;5.074;2023-02-13T04:26:18;36.00;;;22.13;;
44110;SDS011;29774;52.664;5.074;2023-02-13T04:28:47;33.90;;;21.42;;
44110;SDS011;29774;52.664;5.074;2023-02-13T04:31:13;33.97;;;21.90;;
44110;SDS011;29774;52.664;5.074;2023-02-13T04:33:39;34.95;;;21.88;;
44110;SDS011;29774;52.664;5.074;2023-02-13T04:36:04;34.47;;;20.27;;
44110;SDS011;29774;52.664;5.074;2023-02-13T04:38:30;33.85;;;21.17;;
44110;SDS011;29774;52.664;5.074;2023-02-13T04:40:56;33.67;;;21.05;;
44110;SDS011;29774;52.664;5.074;2023-02-13T04:43:21;34.65;;;21.98;;
44110;SDS011;29774;52.664;5.074;2023-02-13T04:45:47;32.67;;;20.35;;
44110;SDS011;29774;52.664;5.074;2023-02-13T04:48:13;31.17;;;19.75;;
44110;SDS011;29774;52.664;5.074;2023-02-13T04:50:39;32.08;;;20.13;;
44110;SDS011;29774;52.664;5.074;2023-02-13T04:53:05;31.23;;;20.27;;
44110;SDS011;29774;52.664;5.074;2023-02-13T04:55:31;32.42;;;20.10;;
44110;SDS011;29774;52.664;5.074;2023-02-13T04:57:57;32.55;;;19.17;;
44110;SDS011;29774;52.664;5.074;2023-02-13T05:00:23;34.30;;;19.63;;
44110;SDS011;29774;52.664;5.074;2023-02-13T05:02:50;31.15;;;19.75;;
44110;SDS011;29774;52.664;5.074;2023-02-13T05:05:17;31.65;;;19.52;;
44110;SDS011;29774;52.664;5.074;2023-02-13T05:07:43;31.52;;;19.27;;
44110;SDS011;29774;52.664;5.074;2023-02-13T05:10:10;29.85;;;19.70;;
44110;SDS011;29774;52.664;5.074;2023-02-13T05:12:36;29.52;;;19.77;;
44110;SDS011;29774;52.664;5.074;2023-02-13T05:15:03;36.45;;;22.05;;
44110;SDS011;29774;52.664;5.074;2023-02-13T05:17:29;29.95;;;19.00;;
44110;SDS011;29774;52.664;5.074;2023-02-13T05:19:55;30.23;;;19.48;;
44110;SDS011;29774;52.664;5.074;2023-02-13T05:22:20;31.98;;;20.58;;
44110;SDS011;29774;52.664;5.074;2023-02-13T05:25:04;29.90;;;18.58;;
44110;SDS011;29774;52.664;5.074;2023-02-13T05:27:30;33.47;;;20.17;;
44110;SDS011;29774;52.664;5.074;2023-02-13T05:29:56;29.90;;;19.10;;
44110;SDS011;29774;52.664;5.074;2023-02-13T05:32:21;35.63;;;22.00;;
44110;SDS011;29774;52.664;5.074;2023-02-13T05:34:47;31.77;;;19.77;;
44110;SDS011;29774;52.664;5.074;2023-02-13T05:37:12;36.88;;;21.13;;
44110;SDS011;29774;52.664;5.074;2023-02-13T05:39:38;30.52;;;20.17;;
44110;SDS011;29774;52.664;5.074;2023-02-13T05:42:03;32.38;;;19.70;;
44110;SDS011;29774;52.664;5.074;2023-02-13T05:44:29;30.70;;;19.30;;
44110;SDS011;29774;52.664;5.074;2023-02-13T05:46:55;33.08;;;19.25;;
44110;SDS011;29774;52.664;5.074;2023-02-13T05:49:21;30.33;;;19.23;;
44110;SDS011;29774;52.664;5.074;2023-02-13T05:51:47;33.05;;;19.40;;
44110;SDS011;29774;52.664;5.074;2023-02-13T05:54:13;33.65;;;19.88;;
44110;SDS011;29774;52.664;5.074;2023-02-13T05:56:39;31.95;;;18.60;;
44110;SDS011;29774;52.664;5.074;2023-02-13T05:59:05;32.08;;;18.88;;
44110;SDS011;29774;52.664;5.074;2023-02-13T06:01:30;30.80;;;18.70;;
44110;SDS011;29774;52.664;5.074;2023-02-13T06:03:56;31.13;;;19.38;;
44110;SDS011;29774;52.664;5.074;2023-02-13T06:06:22;29.38;;;17.25;;
44110;SDS011;29774;52.664;5.074;2023-02-13T06:08:48;26.73;;;17.48;;
44110;SDS011;29774;52.664;5.074;2023-02-13T06:11:13;29.45;;;17.40;;
44110;SDS011;29774;52.664;5.074;2023-02-13T06:13:39;31.70;;;18.15;;
44110;SDS011;29774;52.664;5.074;2023-02-13T06:16:06;28.60;;;18.13;;
44110;SDS011;29774;52.664;5.074;2023-02-13T06:18:32;30.23;;;18.08;;
44110;SDS011;29774;52.664;5.074;2023-02-13T06:20:59;31.23;;;18.35;;
44110;SDS011;29774;52.664;5.074;2023-02-13T06:23:25;27.42;;;16.60;;
44110;SDS011;29774;52.664;5.074;2023-02-13T06:25:50;31.90;;;18.67;;
44110;SDS011;29774;52.664;5.074;2023-02-13T06:28:16;26.40;;;16.73;;
44110;SDS011;29774;52.664;5.074;2023-02-13T06:30:41;30.85;;;17.33;;
44110;SDS011;29774;52.664;5.074;2023-02-13T06:33:07;28.90;;;17.73;;
44110;SDS011;29774;52.664;5.074;2023-02-13T06:35:33;29.00;;;17.20;;
44110;SDS011;29774;52.664;5.074;2023-02-13T06:37:58;30.48;;;17.52;;
44110;SDS011;29774;52.664;5.074;2023-02-13T06:40:24;27.98;;;16.77;;
44110;SDS011;29774;52.664;5.074;2023-02-13T06:42:49;29.90;;;17.73;;
44110;SDS011;29774;52.664;5.074;2023-02-13T06:45:15;29.70;;;17.88;;
44110;SDS011;29774;52.664;5.074;2023-02-13T06:47:41;31.98;;;18.13;;
44110;SDS011;29774;52.664;5.074;2023-02-13T06:50:08;28.70;;;16.63;;
44110;SDS011;29774;52.664;5.074;2023-02-13T06:52:35;28.70;;;16.77;;
44110;SDS011;29774;52.664;5.074;2023-02-13T06:55:01;26.52;;;16.65;;
44110;SDS011;29774;52.664;5.074;2023-02-13T06:57:26;30.02;;;18.08;;
44110;SDS011;29774;52.664;5.074;2023-02-13T06:59:56;30.80;;;17.38;;
44110;SDS011;29774;52.664;5.074;2023-02-13T07:02:23;27.83;;;16.67;;
44110;SDS011;29774;52.664;5.074;2023-02-13T07:04:48;29.85;;;18.65;;
44110;SDS011;29774;52.664;5.074;2023-02-13T07:07:14;29.25;;;16.60;;
44110;SDS011;29774;52.664;5.074;2023-02-13T07:09:40;27.40;;;16.05;;
44110;SDS011;29774;52.664;5.074;2023-02-13T07:12:05;30.15;;;17.40;;
44110;SDS011;29774;52.664;5.074;2023-02-13T07:14:31;29.85;;;16.70;;
44110;SDS011;29774;52.664;5.074;2023-02-13T07:16:57;29.77;;;16.50;;
44110;SDS011;29774;52.664;5.074;2023-02-13T07:19:23;27.35;;;16.05;;
44110;SDS011;29774;52.664;5.074;2023-02-13T07:21:48;28.48;;;16.75;;
44110;SDS011;29774;52.664;5.074;2023-02-13T07:24:14;28.38;;;17.27;;
44110;SDS011;29774;52.664;5.074;2023-02-13T07:26:40;28.58;;;16.92;;
44110;SDS011;29774;52.664;5.074;2023-02-13T07:29:06;29.08;;;16.48;;
44110;SDS011;29774;52.664;5.074;2023-02-13T07:31:32;29.65;;;16.55;;
44110;SDS011;29774;52.664;5.074;2023-02-13T07:33:58;27.10;;;15.75;;
44110;SDS011;29774;52.664;5.074;2023-02-13T07:36:24;28.10;;;17.25;;
44110;SDS011;29774;52.664;5.074;2023-02-13T07:38:50;27.75;;;16.42;;
44110;SDS011;29774;52.664;5.074;2023-02-13T07:41:16;27.38;;;17.70;;
44110;SDS011;29774;52.664;5.074;2023-02-13T07:43:42;31.83;;;17.65;;
44110;SDS011;29774;52.664;5.074;2023-02-13T07:46:08;28.83;;;16.80;;
44110;SDS011;29774;52.664;5.074;2023-02-13T07:48:34;28.88;;;16.15;;
44110;SDS011;29774;52.664;5.074;2023-02-13T07:51:00;27.48;;;15.50;;
44110;SDS011;29774;52.664;5.074;2023-02-13T07:53:27;26.67;;;16.02;;
44110;SDS011;29774;52.664;5.074;2023-02-13T07:55:53;26.65;;;15.52;;
44110;SDS011;29774;52.664;5.074;2023-02-13T07:58:19;29.25;;;16.45;;
44110;SDS011;29774;52.664;5.074;2023-02-13T08:00:44;25.77;;;16.00;;
44110;SDS011;29774;52.664;5.074;2023-02-13T08:03:10;27.98;;;15.45;;
44110;SDS011;29774;52.664;5.074;2023-02-13T08:05:36;27.73;;;16.42;;
44110;SDS011;29774;52.664;5.074;2023-02-13T08:08:02;25.77;;;15.68;;
44110;SDS011;29774;52.664;5.074;2023-02-13T08:10:28;29.08;;;16.52;;
44110;SDS011;29774;52.664;5.074;2023-02-13T08:13:13;30.52;;;17.15;;
44110;SDS011;29774;52.664;5.074;2023-02-13T08:15:39;29.05;;;16.17;;
44110;SDS011;29774;52.664;5.074;2023-02-13T08:18:06;27.08;;;16.80;;
44110;SDS011;29774;52.664;5.074;2023-02-13T08:20:32;27.10;;;15.38;;
44110;SDS011;29774;52.664;5.074;2023-02-13T08:23:01;29.52;;;17.27;;
44110;SDS011;29774;52.664;5.074;2023-02-13T08:25:31;32.58;;;16.13;;
44110;SDS011;29774;52.664;5.074;2023-02-13T08:27:58;25.90;;;16.00;;
44110;SDS011;29774;52.664;5.074;2023-02-13T08:30:24;27.48;;;15.50;;
44110;SDS011;29774;52.664;5.074;2023-02-13T08:32:51;26.75;;;16.08;;
44110;SDS011;29774;52.664;5.074;2023-02-13T08:35:16;28.30;;;16.30;;
44110;SDS011;29774;52.664;5.074;2023-02-13T08:37:42;27.80;;;16.05;;
44110;SDS011;29774;52.664;5.074;2023-02-13T08:40:07;26.80;;;14.95;;
44110;SDS011;29774;52.664;5.074;2023-02-13T08:42:34;28.75;;;16.67;;
44110;SDS011;29774;52.664;5.074;2023-02-13T08:45:00;26.27;;;15.93;;
44110;SDS011;29774;52.664;5.074;2023-02-13T08:47:26;28.10;;;16.38;;
44110;SDS011;29774;52.664;5.074;2023-02-13T08:49:52;30.05;;;17.75;;
44110;SDS011;29774;52.664;5.074;2023-02-13T08:52:17;28.25;;;16.92;;
44110;SDS011;29774;52.664;5.074;2023-02-13T08:54:43;29.73;;;15.93;;
44110;SDS011;29774;52.664;5.074;2023-02-13T08:57:08;27.73;;;15.15;;
44110;SDS011;29774;52.664;5.074;2023-02-13T08:59:34;33.08;;;16.63;;
44110;SDS011;29774;52.664;5.074;2023-02-13T09:02:00;27.00;;;15.50;;
44110;SDS011;29774;52.664;5.074;2023-02-13T09:04:25;27.98;;;15.40;;
44110;SDS011;29774;52.664;5.074;2023-02-13T09:06:51;26.50;;;15.35;;
44110;SDS011;29774;52.664;5.074;2023-02-13T09:09:17;27.00;;;15.43;;
44110;SDS011;29774;52.664;5.074;2023-02-13T09:11:43;26.02;;;14.88;;
44110;SDS011;29774;52.664;5.074;2023-02-13T09:14:09;33.45;;;19.30;;
44110;SDS011;29774;52.664;5.074;2023-02-13T09:16:34;29.75;;;16.70;;
44110;SDS011;29774;52.664;5.074;2023-02-13T09:19:00;29.55;;;17.25;;
44110;SDS011;29774;52.664;5.074;2023-02-13T09:21:26;29.95;;;16.00;;
44110;SDS011;29774;52.664;5.074;2023-02-13T09:23:51;30.83;;;16.40;;
44110;SDS011;29774;52.664;5.074;2023-02-13T09:26:19;26.75;;;14.80;;
44110;SDS011;29774;52.664;5.074;2023-02-13T09:28:45;27.73;;;17.10;;
44110;SDS011;29774;52.664;5.074;2023-02-13T09:31:14;24.85;;;15.45;;
44110;SDS011;29774;52.664;5.074;2023-02-13T09:33:42;28.92;;;16.13;;
44110;SDS011;29774;52.664;5.074;2023-02-13T09:36:10;27.95;;;15.38;;
44110;SDS011;29774;52.664;5.074;2023-02-13T09:38:43;32.28;;;17.70;;
44110;SDS011;29774;52.664;5.074;2023-02-13T09:43:56;26.10;;;15.75;;
44110;SDS011;29774;52.664;5.074;2023-02-13T09:46:57;25.80;;;15.57;;
44110;SDS011;29774;52.664;5.074;2023-02-13T09:49:31;24.63;;;14.73;;
44110;SDS011;29774;52.664;5.074;2023-02-13T09:51:59;29.30;;;15.85;;
44110;SDS011;29774;52.664;5.074;2023-02-13T09:54:25;31.73;;;16.52;;
44110;SDS011;29774;52.664;5.074;2023-02-13T09:56:56;26.85;;;16.02;;
44110;SDS011;29774;52.664;5.074;2023-02-13T10:08:16;26.65;;;15.80;;
44110;SDS011;29774;52.664;5.074;2023-02-13T10:10:57;27.95;;;15.48;;
44110;SDS011;29774;52.664;5.074;2023-02-13T10:13:49;30.13;;;16.45;;
44110;SDS011;29774;52.664;5.074;2023-02-13T10:16:29;27.17;;;15.43;;
44110;SDS011;29774;52.664;5.074;2023-02-13T10:21:46;26.48;;;15.30;;
44110;SDS011;29774;52.664;5.074;2023-02-13T10:24:33;25.25;;;15.93;;
44110;SDS011;29774;52.664;5.074;2023-02-13T10:29:48;28.05;;;15.70;;
44110;SDS011;29774;52.664;5.074;2023-02-13T10:35:35;28.23;;;17.23;;
44110;SDS011;29774;52.664;5.074;2023-02-13T10:38:03;30.65;;;17.17;;
44110;SDS011;29774;52.664;5.074;2023-02-13T10:43:18;25.27;;;16.27;;
44110;SDS011;29774;52.664;5.074;2023-02-13T10:53:59;26.20;;;17.00;;
44110;SDS011;29774;52.664;5.074;2023-02-13T11:02:23;28.27;;;16.25;;
44110;SDS011;29774;52.664;5.074;2023-02-13T11:04:57;25.00;;;15.57;;
44110;SDS011;29774;52.664;5.074;2023-02-13T11:07:26;25.23;;;16.05;;
44110;SDS011;29774;52.664;5.074;2023-02-13T11:09:55;27.08;;;16.77;;
44110;SDS011;29774;52.664;5.074;2023-02-13T11:14:57;23.90;;;15.80;;
44110;SDS011;29774;52.664;5.074;2023-02-13T11:17:30;26.42;;;16.40;;
44110;SDS011;29774;52.664;5.074;2023-02-13T11:20:20;24.02;;;15.75;;
44110;SDS011;29774;52.664;5.074;2023-02-13T11:22:49;23.00;;;15.45;;
44110;SDS011;29774;52.664;5.074;2023-02-13T11:25:33;23.15;;;15.25;;
44110;SDS011;29774;52.664;5.074;2023-02-13T11:28:14;21.42;;;15.15;;
44110;SDS011;29774;52.664;5.074;2023-02-13T11:30:45;24.85;;;15.82;;
44110;SDS011;29774;52.664;5.074;2023-02-13T11:35:41;24.48;;;15.65;;
44110;SDS011;29774;52.664;5.074;2023-02-13T11:40:45;24.98;;;16.65;;
44110;SDS011;29774;52.664;5.074;2023-02-13T11:43:30;27.42;;;16.58;;
44110;SDS011;29774;52.664;5.074;2023-02-13T11:46:11;26.05;;;16.70;;
44110;SDS011;29774;52.664;5.074;2023-02-13T11:51:44;27.65;;;17.42;;
44110;SDS011;29774;52.664;5.074;2023-02-13T11:59:29;24.63;;;15.75;;
44110;SDS011;29774;52.664;5.074;2023-02-13T12:02:00;24.73;;;16.00;;
44110;SDS011;29774;52.664;5.074;2023-02-13T12:04:28;24.15;;;15.52;;
44110;SDS011;29774;52.664;5.074;2023-02-13T12:07:01;24.67;;;16.20;;
44110;SDS011;29774;52.664;5.074;2023-02-13T12:09:39;24.95;;;15.70;;
44110;SDS011;29774;52.664;5.074;2023-02-13T12:12:06;24.92;;;15.73;;
44110;SDS011;29774;52.664;5.074;2023-02-13T12:14:37;22.70;;;15.07;;
44110;SDS011;29774;52.664;5.074;2023-02-13T12:17:07;25.33;;;15.20;;
44110;SDS011;29774;52.664;5.074;2023-02-13T12:19:47;21.75;;;15.00;;
44110;SDS011;29774;52.664;5.074;2023-02-13T12:22:36;24.40;;;15.32;;
44110;SDS011;29774;52.664;5.074;2023-02-13T12:25:21;24.92;;;15.90;;
44110;SDS011;29774;52.664;5.074;2023-02-13T12:36:24;25.38;;;16.77;;
44110;SDS011;29774;52.664;5.074;2023-02-13T12:47:04;23.40;;;15.85;;
44110;SDS011;29774;52.664;5.074;2023-02-13T12:55:14;25.48;;;16.77;;
44110;SDS011;29774;52.664;5.074;2023-02-13T13:22:53;25.58;;;16.63;;
44110;SDS011;29774;52.664;5.074;2023-02-13T13:25:49;26.15;;;17.38;;
44110;SDS011;29774;52.664;5.074;2023-02-13T13:28:39;27.02;;;17.83;;
44110;SDS011;29774;52.664;5.074;2023-02-13T13:31:07;27.83;;;18.67;;
44110;SDS011;29774;52.664;5.074;2023-02-13T13:33:34;25.27;;;17.58;;
44110;SDS011;29774;52.664;5.074;2023-02-13T13:36:10;25.25;;;17.80;;
44110;SDS011;29774;52.664;5.074;2023-02-13T13:43:58;27.60;;;18.80;;
44110;SDS011;29774;52.664;5.074;2023-02-13T13:46:34;27.10;;;18.42;;
44110;SDS011;29774;52.664;5.074;2023-02-13T13:49:16;27.50;;;19.25;;
44110;SDS011;29774;52.664;5.074;2023-02-13T13:54:45;25.88;;;17.63;;
44110;SDS011;29774;52.664;5.074;2023-02-13T13:57:15;26.83;;;16.52;;
44110;SDS011;29774;52.664;5.074;2023-02-13T14:07:39;26.67;;;17.70;;
44110;SDS011;29774;52.664;5.074;2023-02-13T14:10:14;27.98;;;18.30;;
44110;SDS011;29774;52.664;5.074;2023-02-13T14:20:37;28.67;;;18.65;;
44110;SDS011;29774;52.664;5.074;2023-02-13T14:23:13;27.58;;;18.02;;
44110;SDS011;29774;52.664;5.074;2023-02-13T14:26:08;27.70;;;18.02;;
44110;SDS011;29774;52.664;5.074;2023-02-13T14:31:22;25.15;;;18.30;;
44110;SDS011;29774;52.664;5.074;2023-02-13T14:34:19;26.45;;;18.67;;
44110;SDS011;29774;52.664;5.074;2023-02-13T14:42:50;28.63;;;19.27;;
44110;SDS011;29774;52.664;5.074;2023-02-13T14:45:32;30.42;;;19.17;;
44110;SDS011;29774;52.664;5.074;2023-02-13T14:48:05;28.88;;;20.33;;
44110;SDS011;29774;52.664;5.074;2023-02-13T14:50:48;27.70;;;19.48;;
44110;SDS011;29774;52.664;5.074;2023-02-13T14:53:26;34.55;;;21.48;;
44110;SDS011;29774;52.664;5.074;2023-02-13T14:56:00;32.67;;;22.95;;
44110;SDS011;29774;52.664;5.074;2023-02-13T14:58:31;31.48;;;20.38;;
44110;SDS011;29774;52.664;5.074;2023-02-13T15:03:50;29.80;;;21.08;;
44110;SDS011;29774;52.664;5.074;2023-02-13T15:06:38;31.75;;;20.45;;
44110;SDS011;29774;52.664;5.074;2023-02-13T15:09:27;29.85;;;21.10;;
44110;SDS011;29774;52.664;5.074;2023-02-13T15:12:03;34.47;;;21.67;;
44110;SDS011;29774;52.664;5.074;2023-02-13T15:14:47;28.10;;;20.70;;
44110;SDS011;29774;52.664;5.074;2023-02-13T15:19:47;32.60;;;20.85;;
44110;SDS011;29774;52.664;5.074;2023-02-13T15:25:03;33.28;;;22.23;;
44110;SDS011;29774;52.664;5.074;2023-02-13T15:27:33;33.10;;;22.02;;
44110;SDS011;29774;52.664;5.074;2023-02-13T15:30:17;32.28;;;21.23;;
44110;SDS011;29774;52.664;5.074;2023-02-13T15:32:58;35.22;;;23.75;;
44110;SDS011;29774;52.664;5.074;2023-02-13T15:35:29;34.38;;;22.73;;
44110;SDS011;29774;52.664;5.074;2023-02-13T15:40:49;32.20;;;22.40;;
44110;SDS011;29774;52.664;5.074;2023-02-13T15:43:21;37.10;;;23.42;;
44110;SDS011;29774;52.664;5.074;2023-02-13T15:48:44;35.28;;;21.60;;
44110;SDS011;29774;52.664;5.074;2023-02-13T15:51:24;34.80;;;22.75;;
44110;SDS011;29774;52.664;5.074;2023-02-13T15:53:55;32.92;;;21.10;;
44110;SDS011;29774;52.664;5.074;2023-02-13T15:56:23;36.00;;;22.73;;
44110;SDS011;29774;52.664;5.074;2023-02-13T15:58:50;29.75;;;20.90;;
44110;SDS011;29774;52.664;5.074;2023-02-13T16:01:17;30.27;;;19.15;;
44110;SDS011;29774;52.664;5.074;2023-02-13T16:03:44;31.20;;;19.23;;
44110;SDS011;29774;52.664;5.074;2023-02-13T16:06:12;34.17;;;24.52;;
44110;SDS011;29774;52.664;5.074;2023-02-13T16:08:44;33.40;;;21.70;;
44110;SDS011;29774;52.664;5.074;2023-02-13T16:14:05;32.20;;;21.30;;
44110;SDS011;29774;52.664;5.074;2023-02-13T16:16:58;32.67;;;21.70;;
44110;SDS011;29774;52.664;5.074;2023-02-13T16:21:51;36.90;;;21.45;;
44110;SDS011;29774;52.664;5.074;2023-02-13T16:24:19;33.05;;;21.13;;
44110;SDS011;29774;52.664;5.074;2023-02-13T16:26:45;33.50;;;22.90;;
44110;SDS011;29774;52.664;5.074;2023-02-13T16:29:22;34.10;;;22.63;;
44110;SDS011;29774;52.664;5.074;2023-02-13T16:31:50;32.38;;;22.55;;
44110;SDS011;29774;52.664;5.074;2023-02-13T16:34:27;33.92;;;23.40;;
44110;SDS011;29774;52.664;5.074;2023-02-13T16:36:54;37.97;;;24.73;;
44110;SDS011;29774;52.664;5.074;2023-02-13T16:39:21;37.28;;;25.10;;
44110;SDS011;29774;52.664;5.074;2023-02-13T16:41:56;39.20;;;25.38;;
44110;SDS011;29774;52.664;5.074;2023-02-13T16:44:24;41.08;;;27.08;;
44110;SDS011;29774;52.664;5.074;2023-02-13T16:46:58;38.03;;;25.33;;
44110;SDS011;29774;52.664;5.074;2023-02-13T16:49:35;38.25;;;27.25;;
44110;SDS011;29774;52.664;5.074;2023-02-13T16:52:09;39.55;;;26.02;;
44110;SDS011;29774;52.664;5.074;2023-02-13T16:54:48;41.95;;;28.13;;
44110;SDS011;29774;52.664;5.074;2023-02-13T16:57:20;41.42;;;28.40;;
44110;SDS011;29774;52.664;5.074;2023-02-13T17:02:23;40.35;;;28.10;;
44110;SDS011;29774;52.664;5.074;2023-02-13T17:07:36;43.63;;;29.70;;
44110;SDS011;29774;52.664;5.074;2023-02-13T17:10:12;46.38;;;30.00;;
44110;SDS011;29774;52.664;5.074;2023-02-13T17:12:44;41.30;;;28.25;;
44110;SDS011;29774;52.664;5.074;2023-02-13T17:15:11;41.40;;;29.17;;
44110;SDS011;29774;52.664;5.074;2023-02-13T17:17:39;43.80;;;29.75;;
44110;SDS011;29774;52.664;5.074;2023-02-13T17:20:05;43.47;;;29.33;;
44110;SDS011;29774;52.664;5.074;2023-02-13T17:22:35;40.70;;;29.02;;
44110;SDS011;29774;52.664;5.074;2023-02-13T17:25:05;45.03;;;29.65;;
44110;SDS011;29774;52.664;5.074;2023-02-13T17:27:32;42.22;;;30.60;;
44110;SDS011;29774;52.664;5.074;2023-02-13T17:29:59;42.22;;;31.02;;
44110;SDS011;29774;52.664;5.074;2023-02-13T17:32:25;46.88;;;32.60;;
44110;SDS011;29774;52.664;5.074;2023-02-13T17:34:51;51.35;;;35.88;;
44110;SDS011;29774;52.664;5.074;2023-02-13T17:37:18;48.35;;;34.03;;
44110;SDS011;29774;52.664;5.074;2023-02-13T17:39:54;48.30;;;33.83;;
44110;SDS011;29774;52.664;5.074;2023-02-13T17:44:53;39.75;;;29.50;;
44110;SDS011;29774;52.664;5.074;2023-02-13T17:47:20;39.35;;;28.10;;
44110;SDS011;29774;52.664;5.074;2023-02-13T17:49:46;38.28;;;27.70;;
44110;SDS011;29774;52.664;5.074;2023-02-13T17:52:13;37.58;;;27.73;;
44110;SDS011;29774;52.664;5.074;2023-02-13T17:54:43;36.92;;;26.48;;